sensor_id;sensor_type;location;lat;lon;timestamp;P1;durP1;ratioP1;P2;durP2;ratioP2
24799;SDS011;12897;50.812;4.430;2023-04-01T00:02:21;13.28;;;2.42;;
24799;SDS011;12897;50.812;4.430;2023-04-01T00:04:48;10.18;;;2.27;;
24799;SDS011;12897;50.812;4.430;2023-04-01T00:07:16;15.30;;;2.83;;
24799;SDS011;12897;50.812;4.430;2023-04-01T00:09:43;11.73;;;2.47;;
24799;SDS011;12897;50.812;4.430;2023-04-01T00:12:12;12.90;;;2.60;;
24799;SDS011;12897;50.812;4.430;2023-04-01T00:14:40;12.43;;;2.42;;
24799;SDS011;12897;50.812;4.430;2023-04-01T00:17:07;11.63;;;2.25;;
24799;SDS011;12897;50.812;4.430;2023-04-01T00:19:35;17.87;;;3.40;;
24799;SDS011;12897;50.812;4.430;2023-04-01T00:22:02;13.98;;;2.40;;
24799;SDS011;12897;50.812;4.430;2023-04-01T00:24:32;13.58;;;2.58;;
24799;SDS011;12897;50.812;4.430;2023-04-01T00:27:00;12.43;;;2.20;;
24799;SDS011;12897;50.812;4.430;2023-04-01T00:29:32;11.22;;;1.90;;
24799;SDS011;12897;50.812;4.430;2023-04-01T00:32:00;8.90;;;1.98;;
24799;SDS011;12897;50.812;4.430;2023-04-01T00:34:30;11.10;;;2.20;;
24799;SDS011;12897;50.812;4.430;2023-04-01T00:36:57;8.45;;;1.85;;
24799;SDS011;12897;50.812;4.430;2023-04-01T00:39:28;10.03;;;2.10;;
24799;SDS011;12897;50.812;4.430;2023-04-01T00:42:00;10.05;;;2.25;;
24799;SDS011;12897;50.812;4.430;2023-04-01T00:44:31;10.05;;;1.92;;
24799;SDS011;12897;50.812;4.430;2023-04-01T00:47:03;9.45;;;2.10;;
24799;SDS011;12897;50.812;4.430;2023-04-01T00:49:32;9.20;;;1.95;;
24799;SDS011;12897;50.812;4.430;2023-04-01T00:52:02;5.95;;;1.60;;
24799;SDS011;12897;50.812;4.430;2023-04-01T00:54:32;10.58;;;2.40;;
24799;SDS011;12897;50.812;4.430;2023-04-01T00:57:05;10.45;;;2.20;;
24799;SDS011;12897;50.812;4.430;2023-04-01T00:59:42;4.78;;;2.10;;
24799;SDS011;12897;50.812;4.430;2023-04-01T01:02:08;6.10;;;2.25;;
24799;SDS011;12897;50.812;4.430;2023-04-01T01:04:38;8.20;;;2.58;;
24799;SDS011;12897;50.812;4.430;2023-04-01T01:12:46;5.90;;;2.15;;
24799;SDS011;12897;50.812;4.430;2023-04-01T01:15:41;5.58;;;2.10;;
24799;SDS011;12897;50.812;4.430;2023-04-01T01:31:44;7.95;;;2.60;;
24799;SDS011;12897;50.812;4.430;2023-04-01T01:34:16;8.53;;;3.10;;
24799;SDS011;12897;50.812;4.430;2023-04-01T01:36:45;6.65;;;2.80;;
24799;SDS011;12897;50.812;4.430;2023-04-01T01:39:16;8.58;;;3.00;;
24799;SDS011;12897;50.812;4.430;2023-04-01T01:41:46;9.78;;;3.30;;
24799;SDS011;12897;50.812;4.430;2023-04-01T01:44:15;9.08;;;3.33;;
24799;SDS011;12897;50.812;4.430;2023-04-01T01:46:44;5.75;;;3.10;;
24799;SDS011;12897;50.812;4.430;2023-04-01T01:49:13;6.65;;;3.15;;
24799;SDS011;12897;50.812;4.430;2023-04-01T01:51:44;7.08;;;3.08;;
24799;SDS011;12897;50.812;4.430;2023-04-01T01:54:15;13.43;;;4.20;;
24799;SDS011;12897;50.812;4.430;2023-04-01T01:56:46;9.93;;;3.55;;
24799;SDS011;12897;50.812;4.430;2023-04-01T01:59:17;9.80;;;3.52;;
24799;SDS011;12897;50.812;4.430;2023-04-01T02:01:48;12.37;;;3.90;;
24799;SDS011;12897;50.812;4.430;2023-04-01T02:04:17;12.45;;;4.10;;
24799;SDS011;12897;50.812;4.430;2023-04-01T02:06:47;14.68;;;4.58;;
24799;SDS011;12897;50.812;4.430;2023-04-01T02:09:18;14.78;;;4.40;;
24799;SDS011;12897;50.812;4.430;2023-04-01T02:11:50;9.90;;;4.67;;
24799;SDS011;12897;50.812;4.430;2023-04-01T02:14:21;11.93;;;4.75;;
24799;SDS011;12897;50.812;4.430;2023-04-01T02:16:58;10.48;;;5.75;;
24799;SDS011;12897;50.812;4.430;2023-04-01T02:19:32;13.30;;;5.17;;
24799;SDS011;12897;50.812;4.430;2023-04-01T02:22:02;11.25;;;5.30;;
24799;SDS011;12897;50.812;4.430;2023-04-01T02:24:32;14.73;;;4.70;;
24799;SDS011;12897;50.812;4.430;2023-04-01T02:29:29;10.98;;;4.65;;
24799;SDS011;12897;50.812;4.430;2023-04-01T02:31:57;12.78;;;4.70;;
24799;SDS011;12897;50.812;4.430;2023-04-01T02:34:25;13.20;;;5.17;;
24799;SDS011;12897;50.812;4.430;2023-04-01T02:36:53;9.85;;;4.45;;
24799;SDS011;12897;50.812;4.430;2023-04-01T02:39:23;13.40;;;5.30;;
24799;SDS011;12897;50.812;4.430;2023-04-01T02:41:52;17.05;;;5.60;;
24799;SDS011;12897;50.812;4.430;2023-04-01T02:44:19;13.03;;;4.72;;
24799;SDS011;12897;50.812;4.430;2023-04-01T02:46:47;19.98;;;5.33;;
24799;SDS011;12897;50.812;4.430;2023-04-01T02:49:15;14.58;;;4.47;;
24799;SDS011;12897;50.812;4.430;2023-04-01T02:51:42;11.00;;;4.50;;
24799;SDS011;12897;50.812;4.430;2023-04-01T02:54:11;13.60;;;5.03;;
24799;SDS011;12897;50.812;4.430;2023-04-01T02:56:38;14.80;;;4.83;;
24799;SDS011;12897;50.812;4.430;2023-04-01T02:59:06;16.42;;;4.53;;
24799;SDS011;12897;50.812;4.430;2023-04-01T03:01:33;14.18;;;5.33;;
24799;SDS011;12897;50.812;4.430;2023-04-01T03:04:01;12.13;;;5.08;;
24799;SDS011;12897;50.812;4.430;2023-04-01T03:06:28;17.35;;;5.70;;
24799;SDS011;12897;50.812;4.430;2023-04-01T03:09:00;13.10;;;4.78;;
24799;SDS011;12897;50.812;4.430;2023-04-01T03:11:29;16.30;;;5.35;;
24799;SDS011;12897;50.812;4.430;2023-04-01T03:13:56;13.93;;;4.72;;
24799;SDS011;12897;50.812;4.430;2023-04-01T03:16:26;19.57;;;5.35;;
24799;SDS011;12897;50.812;4.430;2023-04-01T03:18:53;18.55;;;6.35;;
24799;SDS011;12897;50.812;4.430;2023-04-01T03:21:24;17.10;;;6.08;;
24799;SDS011;12897;50.812;4.430;2023-04-01T03:23:55;12.55;;;6.33;;
24799;SDS011;12897;50.812;4.430;2023-04-01T03:26:23;19.32;;;5.80;;
24799;SDS011;12897;50.812;4.430;2023-04-01T03:28:52;14.63;;;6.47;;
24799;SDS011;12897;50.812;4.430;2023-04-01T03:31:41;15.27;;;7.00;;
24799;SDS011;12897;50.812;4.430;2023-04-01T03:34:09;13.85;;;6.80;;
24799;SDS011;12897;50.812;4.430;2023-04-01T03:36:37;18.00;;;7.90;;
24799;SDS011;12897;50.812;4.430;2023-04-01T03:39:04;18.80;;;8.18;;
24799;SDS011;12897;50.812;4.430;2023-04-01T03:41:32;16.87;;;8.48;;
24799;SDS011;12897;50.812;4.430;2023-04-01T03:44:02;20.53;;;8.90;;
24799;SDS011;12897;50.812;4.430;2023-04-01T03:46:29;22.20;;;9.08;;
24799;SDS011;12897;50.812;4.430;2023-04-01T03:48:57;18.00;;;8.80;;
24799;SDS011;12897;50.812;4.430;2023-04-01T03:51:24;22.75;;;8.75;;
24799;SDS011;12897;50.812;4.430;2023-04-01T03:53:52;26.25;;;9.60;;
24799;SDS011;12897;50.812;4.430;2023-04-01T03:56:20;26.33;;;9.38;;
24799;SDS011;12897;50.812;4.430;2023-04-01T03:58:47;19.15;;;9.20;;
24799;SDS011;12897;50.812;4.430;2023-04-01T04:01:16;18.42;;;8.68;;
24799;SDS011;12897;50.812;4.430;2023-04-01T04:03:46;24.05;;;8.95;;
24799;SDS011;12897;50.812;4.430;2023-04-01T04:06:16;23.25;;;9.08;;
24799;SDS011;12897;50.812;4.430;2023-04-01T04:08:44;23.30;;;8.40;;
24799;SDS011;12897;50.812;4.430;2023-04-01T04:11:12;24.87;;;9.18;;
24799;SDS011;12897;50.812;4.430;2023-04-01T04:13:41;18.07;;;8.55;;
24799;SDS011;12897;50.812;4.430;2023-04-01T04:16:09;20.05;;;8.35;;
24799;SDS011;12897;50.812;4.430;2023-04-01T04:18:37;19.07;;;7.05;;
24799;SDS011;12897;50.812;4.430;2023-04-01T04:21:05;21.10;;;8.30;;
24799;SDS011;12897;50.812;4.430;2023-04-01T04:23:33;15.53;;;7.37;;
24799;SDS011;12897;50.812;4.430;2023-04-01T04:26:05;19.07;;;7.22;;
24799;SDS011;12897;50.812;4.430;2023-04-01T04:28:34;16.90;;;6.75;;
24799;SDS011;12897;50.812;4.430;2023-04-01T04:31:05;15.68;;;6.10;;
24799;SDS011;12897;50.812;4.430;2023-04-01T04:33:34;13.93;;;7.20;;
24799;SDS011;12897;50.812;4.430;2023-04-01T04:36:02;18.67;;;6.40;;
24799;SDS011;12897;50.812;4.430;2023-04-01T04:38:30;12.78;;;5.78;;
24799;SDS011;12897;50.812;4.430;2023-04-01T04:40:58;12.63;;;5.58;;
24799;SDS011;12897;50.812;4.430;2023-04-01T04:43:25;20.17;;;7.08;;
24799;SDS011;12897;50.812;4.430;2023-04-01T04:45:53;15.35;;;6.97;;
24799;SDS011;12897;50.812;4.430;2023-04-01T04:48:20;12.65;;;6.58;;
24799;SDS011;12897;50.812;4.430;2023-04-01T04:50:49;13.35;;;6.15;;
24799;SDS011;12897;50.812;4.430;2023-04-01T04:53:17;11.60;;;6.50;;
24799;SDS011;12897;50.812;4.430;2023-04-01T04:55:47;11.70;;;5.70;;
24799;SDS011;12897;50.812;4.430;2023-04-01T05:00:42;16.07;;;5.60;;
24799;SDS011;12897;50.812;4.430;2023-04-01T05:03:11;12.55;;;6.17;;
24799;SDS011;12897;50.812;4.430;2023-04-01T05:05:38;15.18;;;6.33;;
24799;SDS011;12897;50.812;4.430;2023-04-01T05:08:06;9.85;;;6.15;;
24799;SDS011;12897;50.812;4.430;2023-04-01T05:10:34;10.93;;;5.97;;
24799;SDS011;12897;50.812;4.430;2023-04-01T05:13:02;10.45;;;6.17;;
24799;SDS011;12897;50.812;4.430;2023-04-01T05:15:29;11.38;;;5.50;;
24799;SDS011;12897;50.812;4.430;2023-04-01T05:17:56;9.65;;;5.40;;
24799;SDS011;12897;50.812;4.430;2023-04-01T05:20:24;7.97;;;4.83;;
24799;SDS011;12897;50.812;4.430;2023-04-01T05:22:55;12.13;;;5.83;;
24799;SDS011;12897;50.812;4.430;2023-04-01T05:25:24;9.35;;;5.45;;
24799;SDS011;12897;50.812;4.430;2023-04-01T05:27:51;9.15;;;5.50;;
24799;SDS011;12897;50.812;4.430;2023-04-01T05:30:19;12.65;;;6.00;;
24799;SDS011;12897;50.812;4.430;2023-04-01T05:32:47;15.58;;;6.28;;
24799;SDS011;12897;50.812;4.430;2023-04-01T05:35:15;13.58;;;5.80;;
24799;SDS011;12897;50.812;4.430;2023-04-01T05:37:42;11.15;;;6.42;;
24799;SDS011;12897;50.812;4.430;2023-04-01T05:40:10;12.40;;;6.53;;
24799;SDS011;12897;50.812;4.430;2023-04-01T05:42:38;17.48;;;7.45;;
24799;SDS011;12897;50.812;4.430;2023-04-01T05:45:06;13.25;;;7.50;;
24799;SDS011;12897;50.812;4.430;2023-04-01T05:47:34;14.20;;;7.17;;
24799;SDS011;12897;50.812;4.430;2023-04-01T05:50:02;17.45;;;7.85;;
24799;SDS011;12897;50.812;4.430;2023-04-01T05:52:30;18.07;;;7.62;;
24799;SDS011;12897;50.812;4.430;2023-04-01T05:54:57;15.38;;;8.05;;
24799;SDS011;12897;50.812;4.430;2023-04-01T05:57:26;19.12;;;9.65;;
24799;SDS011;12897;50.812;4.430;2023-04-01T05:59:55;19.57;;;8.65;;
24799;SDS011;12897;50.812;4.430;2023-04-01T06:02:23;16.87;;;9.40;;
24799;SDS011;12897;50.812;4.430;2023-04-01T06:04:53;19.87;;;9.48;;
24799;SDS011;12897;50.812;4.430;2023-04-01T06:07:21;20.35;;;10.32;;
24799;SDS011;12897;50.812;4.430;2023-04-01T06:09:48;18.12;;;10.00;;
24799;SDS011;12897;50.812;4.430;2023-04-01T06:12:25;17.52;;;9.95;;
24799;SDS011;12897;50.812;4.430;2023-04-01T06:14:57;20.65;;;9.75;;
24799;SDS011;12897;50.812;4.430;2023-04-01T06:23:18;23.67;;;10.45;;
24799;SDS011;12897;50.812;4.430;2023-04-01T06:25:50;19.60;;;9.90;;
24799;SDS011;12897;50.812;4.430;2023-04-01T06:31:26;26.27;;;10.00;;
24799;SDS011;12897;50.812;4.430;2023-04-01T06:34:08;24.52;;;10.58;;
24799;SDS011;12897;50.812;4.430;2023-04-01T06:47:48;25.83;;;12.87;;
24799;SDS011;12897;50.812;4.430;2023-04-01T06:50:42;19.15;;;10.60;;
24799;SDS011;12897;50.812;4.430;2023-04-01T06:56:06;25.57;;;10.65;;
24799;SDS011;12897;50.812;4.430;2023-04-01T07:01:27;19.57;;;9.75;;
24799;SDS011;12897;50.812;4.430;2023-04-01T07:04:00;17.92;;;9.50;;
24799;SDS011;12897;50.812;4.430;2023-04-01T07:06:50;23.63;;;9.70;;
24799;SDS011;12897;50.812;4.430;2023-04-01T07:09:20;14.00;;;7.75;;
24799;SDS011;12897;50.812;4.430;2023-04-01T07:11:53;16.02;;;7.45;;
24799;SDS011;12897;50.812;4.430;2023-04-01T07:14:32;13.75;;;7.33;;
24799;SDS011;12897;50.812;4.430;2023-04-01T07:17:19;17.33;;;8.13;;
24799;SDS011;12897;50.812;4.430;2023-04-01T07:22:58;10.58;;;6.42;;
24799;SDS011;12897;50.812;4.430;2023-04-01T07:25:41;10.30;;;6.00;;
24799;SDS011;12897;50.812;4.430;2023-04-01T07:28:06;13.18;;;5.92;;
24799;SDS011;12897;50.812;4.430;2023-04-01T07:30:53;12.95;;;6.65;;
24799;SDS011;12897;50.812;4.430;2023-04-01T07:33:43;12.37;;;6.70;;
24799;SDS011;12897;50.812;4.430;2023-04-01T07:39:26;14.80;;;6.50;;
24799;SDS011;12897;50.812;4.430;2023-04-01T07:50:37;14.10;;;5.95;;
24799;SDS011;12897;50.812;4.430;2023-04-01T08:04:23;6.33;;;2.98;;
24799;SDS011;12897;50.812;4.430;2023-04-01T08:07:13;3.65;;;2.52;;
24799;SDS011;12897;50.812;4.430;2023-04-01T08:09:49;4.95;;;2.65;;
24799;SDS011;12897;50.812;4.430;2023-04-01T08:12:27;8.48;;;3.98;;
24799;SDS011;12897;50.812;4.430;2023-04-01T08:14:55;6.30;;;3.30;;
24799;SDS011;12897;50.812;4.430;2023-04-01T08:17:43;5.17;;;2.75;;
24799;SDS011;12897;50.812;4.430;2023-04-01T08:23:10;4.95;;;2.62;;
24799;SDS011;12897;50.812;4.430;2023-04-01T08:25:35;5.42;;;2.67;;
24799;SDS011;12897;50.812;4.430;2023-04-01T08:28:15;5.80;;;2.65;;
24799;SDS011;12897;50.812;4.430;2023-04-01T08:33:31;5.72;;;2.77;;
24799;SDS011;12897;50.812;4.430;2023-04-01T08:52:36;5.05;;;1.90;;
24799;SDS011;12897;50.812;4.430;2023-04-01T08:58:21;4.03;;;1.65;;
24799;SDS011;12897;50.812;4.430;2023-04-01T09:00:49;5.50;;;1.65;;
24799;SDS011;12897;50.812;4.430;2023-04-01T09:03:36;4.58;;;1.75;;
24799;SDS011;12897;50.812;4.430;2023-04-01T09:06:37;5.85;;;1.80;;
24799;SDS011;12897;50.812;4.430;2023-04-01T09:14:36;7.30;;;2.60;;
24799;SDS011;12897;50.812;4.430;2023-04-01T09:20:03;4.35;;;2.20;;
24799;SDS011;12897;50.812;4.430;2023-04-01T09:25:15;5.30;;;2.80;;
24799;SDS011;12897;50.812;4.430;2023-04-01T09:27:57;6.43;;;2.90;;
24799;SDS011;12897;50.812;4.430;2023-04-01T09:36:12;6.00;;;2.70;;
24799;SDS011;12897;50.812;4.430;2023-04-01T09:38:52;6.03;;;3.40;;
24799;SDS011;12897;50.812;4.430;2023-04-01T09:41:33;8.20;;;2.90;;
24799;SDS011;12897;50.812;4.430;2023-04-01T09:44:28;5.47;;;2.72;;
24799;SDS011;12897;50.812;4.430;2023-04-01T09:47:00;4.80;;;2.50;;
24799;SDS011;12897;50.812;4.430;2023-04-01T09:49:46;3.75;;;2.20;;
24799;SDS011;12897;50.812;4.430;2023-04-01T10:01:04;4.85;;;2.62;;
24799;SDS011;12897;50.812;4.430;2023-04-01T10:06:32;3.70;;;2.65;;
24799;SDS011;12897;50.812;4.430;2023-04-01T10:38:14;6.25;;;2.10;;
24799;SDS011;12897;50.812;4.430;2023-04-01T10:48:54;3.20;;;1.95;;
24799;SDS011;12897;50.812;4.430;2023-04-01T10:51:33;5.47;;;1.62;;
24799;SDS011;12897;50.812;4.430;2023-04-01T11:08:03;3.75;;;1.87;;
24799;SDS011;12897;50.812;4.430;2023-04-01T11:11:05;4.08;;;2.10;;
24799;SDS011;12897;50.812;4.430;2023-04-01T11:25:08;3.92;;;2.47;;
24799;SDS011;12897;50.812;4.430;2023-04-01T11:44:15;4.65;;;2.40;;
24799;SDS011;12897;50.812;4.430;2023-04-01T11:46:49;4.22;;;2.52;;
24799;SDS011;12897;50.812;4.430;2023-04-01T11:49:40;4.37;;;2.50;;
24799;SDS011;12897;50.812;4.430;2023-04-01T12:00:37;3.77;;;2.00;;
24799;SDS011;12897;50.812;4.430;2023-04-01T12:08:44;6.00;;;2.37;;
24799;SDS011;12897;50.812;4.430;2023-04-01T12:11:23;3.05;;;2.17;;
24799;SDS011;12897;50.812;4.430;2023-04-01T12:16:40;6.15;;;2.37;;
24799;SDS011;12897;50.812;4.430;2023-04-01T12:19:23;3.83;;;2.27;;
24799;SDS011;12897;50.812;4.430;2023-04-01T12:24:47;5.25;;;2.50;;
24799;SDS011;12897;50.812;4.430;2023-04-01T12:27:34;4.55;;;2.17;;
24799;SDS011;12897;50.812;4.430;2023-04-01T12:30:40;4.25;;;2.70;;
24799;SDS011;12897;50.812;4.430;2023-04-01T12:36:08;5.28;;;2.90;;
24799;SDS011;12897;50.812;4.430;2023-04-01T12:44:29;5.75;;;2.98;;
24799;SDS011;12897;50.812;4.430;2023-04-01T12:47:16;7.75;;;3.02;;
24799;SDS011;12897;50.812;4.430;2023-04-01T12:55:40;6.10;;;3.37;;
24799;SDS011;12897;50.812;4.430;2023-04-01T12:58:19;7.72;;;3.40;;
24799;SDS011;12897;50.812;4.430;2023-04-01T13:03:41;10.53;;;3.98;;
24799;SDS011;12897;50.812;4.430;2023-04-01T13:06:18;7.37;;;3.67;;
24799;SDS011;12897;50.812;4.430;2023-04-01T13:17:18;6.10;;;3.45;;
24799;SDS011;12897;50.812;4.430;2023-04-01T13:25:29;9.58;;;3.42;;
24799;SDS011;12897;50.812;4.430;2023-04-01T13:28:06;4.62;;;2.92;;
24799;SDS011;12897;50.812;4.430;2023-04-01T13:30:47;5.72;;;3.20;;
24799;SDS011;12897;50.812;4.430;2023-04-01T13:33:21;5.60;;;2.90;;
24799;SDS011;12897;50.812;4.430;2023-04-01T13:50:15;4.47;;;2.75;;
24799;SDS011;12897;50.812;4.430;2023-04-01T13:53:42;3.15;;;2.45;;
24799;SDS011;12897;50.812;4.430;2023-04-01T13:55:43;9.03;;;3.15;;
24799;SDS011;12897;50.812;4.430;2023-04-01T14:14:48;4.83;;;2.17;;
24799;SDS011;12897;50.812;4.430;2023-04-01T14:20:20;2.75;;;1.85;;
24799;SDS011;12897;50.812;4.430;2023-04-01T14:23:25;4.47;;;1.75;;
24799;SDS011;12897;50.812;4.430;2023-04-01T14:29:02;2.98;;;1.50;;
24799;SDS011;12897;50.812;4.430;2023-04-01T14:31:26;2.35;;;1.70;;
24799;SDS011;12897;50.812;4.430;2023-04-01T14:34:20;6.08;;;2.75;;
24799;SDS011;12897;50.812;4.430;2023-04-01T14:36:55;6.10;;;2.00;;
24799;SDS011;12897;50.812;4.430;2023-04-01T14:48:21;2.30;;;1.50;;
24799;SDS011;12897;50.812;4.430;2023-04-01T14:50:54;4.47;;;1.55;;
24799;SDS011;12897;50.812;4.430;2023-04-01T14:58:38;3.17;;;1.50;;
24799;SDS011;12897;50.812;4.430;2023-04-01T15:12:37;6.28;;;2.45;;
24799;SDS011;12897;50.812;4.430;2023-04-01T15:24:03;3.95;;;1.65;;
24799;SDS011;12897;50.812;4.430;2023-04-01T15:27:23;3.55;;;2.00;;
24799;SDS011;12897;50.812;4.430;2023-04-01T15:29:38;7.17;;;2.37;;
24799;SDS011;12897;50.812;4.430;2023-04-01T15:32:23;3.85;;;2.00;;
24799;SDS011;12897;50.812;4.430;2023-04-01T15:34:57;3.98;;;2.35;;
24799;SDS011;12897;50.812;4.430;2023-04-01T15:40:30;3.33;;;1.62;;
24799;SDS011;12897;50.812;4.430;2023-04-01T15:43:29;9.23;;;2.20;;
24799;SDS011;12897;50.812;4.430;2023-04-01T15:49:30;7.08;;;2.08;;
24799;SDS011;12897;50.812;4.430;2023-04-01T15:52:05;6.83;;;3.02;;
24799;SDS011;12897;50.812;4.430;2023-04-01T15:57:27;6.45;;;1.82;;
24799;SDS011;12897;50.812;4.430;2023-04-01T16:03:15;4.17;;;1.82;;
24799;SDS011;12897;50.812;4.430;2023-04-01T16:05:54;7.03;;;1.92;;
24799;SDS011;12897;50.812;4.430;2023-04-01T16:11:34;1.67;;;1.20;;
24799;SDS011;12897;50.812;4.430;2023-04-01T16:14:07;3.85;;;1.72;;
24799;SDS011;12897;50.812;4.430;2023-04-01T16:22:29;4.65;;;1.77;;
24799;SDS011;12897;50.812;4.430;2023-04-01T16:28:24;4.40;;;2.00;;
24799;SDS011;12897;50.812;4.430;2023-04-01T16:31:00;3.20;;;2.05;;
24799;SDS011;12897;50.812;4.430;2023-04-01T16:33:34;6.70;;;1.90;;
24799;SDS011;12897;50.812;4.430;2023-04-01T16:36:20;5.90;;;1.67;;
24799;SDS011;12897;50.812;4.430;2023-04-01T16:38:50;6.40;;;2.05;;
24799;SDS011;12897;50.812;4.430;2023-04-01T16:41:31;3.20;;;1.80;;
24799;SDS011;12897;50.812;4.430;2023-04-01T16:44:17;3.15;;;1.95;;
24799;SDS011;12897;50.812;4.430;2023-04-01T16:49:28;4.75;;;1.98;;
24799;SDS011;12897;50.812;4.430;2023-04-01T16:51:57;4.17;;;2.10;;
24799;SDS011;12897;50.812;4.430;2023-04-01T16:57:45;5.45;;;2.27;;
24799;SDS011;12897;50.812;4.430;2023-04-01T17:06:16;5.60;;;1.98;;
24799;SDS011;12897;50.812;4.430;2023-04-01T17:08:10;4.53;;;2.10;;
24799;SDS011;12897;50.812;4.430;2023-04-01T17:10:42;7.28;;;2.37;;
24799;SDS011;12897;50.812;4.430;2023-04-01T17:28:21;7.40;;;2.67;;
24799;SDS011;12897;50.812;4.430;2023-04-01T17:38:40;6.78;;;2.60;;
24799;SDS011;12897;50.812;4.430;2023-04-01T17:43:45;5.20;;;2.70;;
24799;SDS011;12897;50.812;4.430;2023-04-01T17:54:43;6.50;;;3.08;;
24799;SDS011;12897;50.812;4.430;2023-04-01T18:02:56;7.53;;;3.27;;
24799;SDS011;12897;50.812;4.430;2023-04-01T18:05:56;2.83;;;2.42;;
24799;SDS011;12897;50.812;4.430;2023-04-01T18:11:21;4.62;;;2.80;;
24799;SDS011;12897;50.812;4.430;2023-04-01T18:30:55;7.83;;;4.53;;
24799;SDS011;12897;50.812;4.430;2023-04-01T18:33:26;10.53;;;6.05;;
24799;SDS011;12897;50.812;4.430;2023-04-01T18:36:09;11.50;;;6.67;;
24799;SDS011;12897;50.812;4.430;2023-04-01T18:38:39;10.40;;;6.40;;
24799;SDS011;12897;50.812;4.430;2023-04-01T18:50:00;10.78;;;6.90;;
24799;SDS011;12897;50.812;4.430;2023-04-01T18:51:54;12.23;;;6.45;;
24799;SDS011;12897;50.812;4.430;2023-04-01T19:00:32;12.98;;;6.83;;
24799;SDS011;12897;50.812;4.430;2023-04-01T19:03:25;8.90;;;6.58;;
24799;SDS011;12897;50.812;4.430;2023-04-01T19:05:44;12.88;;;7.00;;
24799;SDS011;12897;50.812;4.430;2023-04-01T19:13:42;12.93;;;9.25;;
24799;SDS011;12897;50.812;4.430;2023-04-01T19:19:18;18.37;;;10.40;;
24799;SDS011;12897;50.812;4.430;2023-04-01T19:21:44;19.70;;;11.22;;
24799;SDS011;12897;50.812;4.430;2023-04-01T19:32:45;23.30;;;12.53;;
24799;SDS011;12897;50.812;4.430;2023-04-01T19:35:24;26.00;;;15.25;;
24799;SDS011;12897;50.812;4.430;2023-04-01T19:38:00;26.80;;;17.42;;
24799;SDS011;12897;50.812;4.430;2023-04-01T19:46:29;29.90;;;18.85;;
24799;SDS011;12897;50.812;4.430;2023-04-01T19:52:10;33.23;;;19.10;;
24799;SDS011;12897;50.812;4.430;2023-04-01T20:00:24;32.98;;;17.70;;
24799;SDS011;12897;50.812;4.430;2023-04-01T20:02:58;29.75;;;18.05;;
24799;SDS011;12897;50.812;4.430;2023-04-01T20:11:13;28.87;;;15.32;;
24799;SDS011;12897;50.812;4.430;2023-04-01T20:19:45;23.10;;;14.15;;
24799;SDS011;12897;50.812;4.430;2023-04-01T20:22:02;22.20;;;13.53;;
24799;SDS011;12897;50.812;4.430;2023-04-01T20:24:41;24.80;;;15.55;;
24799;SDS011;12897;50.812;4.430;2023-04-01T20:27:10;27.65;;;16.40;;
24799;SDS011;12897;50.812;4.430;2023-04-01T20:36:13;30.35;;;15.93;;
24799;SDS011;12897;50.812;4.430;2023-04-01T20:38:19;30.40;;;16.70;;
24799;SDS011;12897;50.812;4.430;2023-04-01T20:40:51;31.82;;;16.50;;
24799;SDS011;12897;50.812;4.430;2023-04-01T20:43:30;41.70;;;17.32;;
24799;SDS011;12897;50.812;4.430;2023-04-01T20:46:01;28.27;;;16.65;;
24799;SDS011;12897;50.812;4.430;2023-04-01T20:51:10;32.58;;;18.05;;
24799;SDS011;12897;50.812;4.430;2023-04-01T20:53:51;33.00;;;18.00;;
24799;SDS011;12897;50.812;4.430;2023-04-01T20:59:10;25.15;;;14.70;;
24799;SDS011;12897;50.812;4.430;2023-04-01T21:10:13;33.40;;;17.62;;
24799;SDS011;12897;50.812;4.430;2023-04-01T21:13:15;30.92;;;17.57;;
24799;SDS011;12897;50.812;4.430;2023-04-01T21:27:06;29.60;;;17.70;;
24799;SDS011;12897;50.812;4.430;2023-04-01T21:32:58;30.90;;;17.82;;
24799;SDS011;12897;50.812;4.430;2023-04-01T21:35:39;26.85;;;17.27;;
24799;SDS011;12897;50.812;4.430;2023-04-01T21:38:26;27.05;;;16.42;;
24799;SDS011;12897;50.812;4.430;2023-04-01T21:47:08;32.17;;;17.70;;
24799;SDS011;12897;50.812;4.430;2023-04-01T22:01:06;27.25;;;17.10;;
24799;SDS011;12897;50.812;4.430;2023-04-01T22:03:39;30.50;;;16.97;;
24799;SDS011;12897;50.812;4.430;2023-04-01T22:19:53;25.80;;;15.32;;
24799;SDS011;12897;50.812;4.430;2023-04-01T22:28:16;25.08;;;14.73;;
24799;SDS011;12897;50.812;4.430;2023-04-01T22:30:47;24.12;;;14.65;;
24799;SDS011;12897;50.812;4.430;2023-04-01T22:33:22;18.62;;;12.58;;
24799;SDS011;12897;50.812;4.430;2023-04-01T22:44:05;24.27;;;14.93;;
24799;SDS011;12897;50.812;4.430;2023-04-01T22:46:38;23.73;;;15.65;;
24799;SDS011;12897;50.812;4.430;2023-04-01T22:49:08;21.87;;;15.60;;
24799;SDS011;12897;50.812;4.430;2023-04-01T22:52:01;23.38;;;15.85;;
24799;SDS011;12897;50.812;4.430;2023-04-01T22:54:45;27.70;;;17.82;;
24799;SDS011;12897;50.812;4.430;2023-04-01T22:57:16;26.40;;;17.48;;
24799;SDS011;12897;50.812;4.430;2023-04-01T23:00:12;19.15;;;11.93;;
24799;SDS011;12897;50.812;4.430;2023-04-01T23:05:47;23.62;;;16.75;;
24799;SDS011;12897;50.812;4.430;2023-04-01T23:11:51;28.02;;;17.55;;
24799;SDS011;12897;50.812;4.430;2023-04-01T23:16:36;26.97;;;17.07;;
24799;SDS011;12897;50.812;4.430;2023-04-01T23:19:13;27.77;;;17.90;;
24799;SDS011;12897;50.812;4.430;2023-04-01T23:21:41;27.52;;;17.65;;
24799;SDS011;12897;50.812;4.430;2023-04-01T23:27:16;24.95;;;16.97;;
24799;SDS011;12897;50.812;4.430;2023-04-01T23:29:41;26.33;;;17.55;;
24799;SDS011;12897;50.812;4.430;2023-04-01T23:32:13;24.10;;;17.92;;
24799;SDS011;12897;50.812;4.430;2023-04-01T23:34:51;24.85;;;17.62;;
24799;SDS011;12897;50.812;4.430;2023-04-01T23:37:16;27.98;;;17.23;;
24799;SDS011;12897;50.812;4.430;2023-04-01T23:39:46;23.40;;;17.05;;
24799;SDS011;12897;50.812;4.430;2023-04-01T23:42:31;31.75;;;17.85;;
24799;SDS011;12897;50.812;4.430;2023-04-01T23:45:02;24.37;;;16.60;;
24799;SDS011;12897;50.812;4.430;2023-04-01T23:47:33;24.45;;;16.10;;
24799;SDS011;12897;50.812;4.430;2023-04-01T23:50:24;24.63;;;17.30;;
24799;SDS011;12897;50.812;4.430;2023-04-01T23:52:43;27.73;;;17.50;;
24799;SDS011;12897;50.812;4.430;2023-04-01T23:57:42;23.67;;;17.35;;
